sensor_id;sensor_type;location;lat;lon;timestamp;pressure;altitude;pressure_sealevel;temperature;humidity
4398;BME280;2213;49.720;7.296;2022-08-25T00:00:18;98230.31;;;20.56;73.90
4398;BME280;2213;49.720;7.296;2022-08-25T00:02:48;98223.25;;;20.45;74.95
4398;BME280;2213;49.720;7.296;2022-08-25T00:05:28;98224.78;;;20.41;75.06
4398;BME280;2213;49.720;7.296;2022-08-25T00:08:00;98225.06;;;20.40;75.42
4398;BME280;2213;49.720;7.296;2022-08-25T00:10:29;98222.94;;;20.42;74.96
4398;BME280;2213;49.720;7.296;2022-08-25T00:13:00;98221.63;;;20.44;74.85
4398;BME280;2213;49.720;7.296;2022-08-25T00:15:30;98217.09;;;20.40;75.13
4398;BME280;2213;49.720;7.296;2022-08-25T00:18:00;98224.66;;;20.31;75.60
4398;BME280;2213;49.720;7.296;2022-08-25T00:20:31;98213.13;;;20.26;75.93
4398;BME280;2213;49.720;7.296;2022-08-25T00:23:00;98214.13;;;20.20;76.73
4398;BME280;2213;49.720;7.296;2022-08-25T00:25:30;98217.66;;;20.25;76.02
4398;BME280;2213;49.720;7.296;2022-08-25T00:27:59;98211.47;;;20.20;76.29
4398;BME280;2213;49.720;7.296;2022-08-25T00:30:34;98219.13;;;20.16;76.44
4398;BME280;2213;49.720;7.296;2022-08-25T00:33:03;98220.72;;;20.17;76.31
4398;BME280;2213;49.720;7.296;2022-08-25T00:35:33;98227.09;;;20.16;76.49
4398;BME280;2213;49.720;7.296;2022-08-25T00:38:02;98225.47;;;20.15;76.36
4398;BME280;2213;49.720;7.296;2022-08-25T00:40:31;98229.09;;;20.09;76.92
4398;BME280;2213;49.720;7.296;2022-08-25T00:43:00;98227.50;;;20.08;76.90
4398;BME280;2213;49.720;7.296;2022-08-25T00:45:28;98235.31;;;19.98;77.62
4398;BME280;2213;49.720;7.296;2022-08-25T00:47:58;98240.53;;;19.93;77.98
4398;BME280;2213;49.720;7.296;2022-08-25T00:50:29;98234.03;;;19.84;78.62
4398;BME280;2213;49.720;7.296;2022-08-25T00:53:03;98238.28;;;19.85;78.92
4398;BME280;2213;49.720;7.296;2022-08-25T00:55:36;98241.34;;;19.77;79.36
4398;BME280;2213;49.720;7.296;2022-08-25T00:58:12;98232.81;;;19.75;79.58
4398;BME280;2213;49.720;7.296;2022-08-25T01:00:47;98243.25;;;19.65;80.39
4398;BME280;2213;49.720;7.296;2022-08-25T01:03:18;98245.03;;;19.59;80.61
4398;BME280;2213;49.720;7.296;2022-08-25T01:05:51;98237.31;;;19.57;80.74
4398;BME280;2213;49.720;7.296;2022-08-25T01:08:27;98235.75;;;19.62;80.47
4398;BME280;2213;49.720;7.296;2022-08-25T01:11:01;98237.22;;;19.52;81.56
4398;BME280;2213;49.720;7.296;2022-08-25T01:13:38;98237.69;;;19.49;81.77
4398;BME280;2213;49.720;7.296;2022-08-25T01:16:08;98238.72;;;19.48;81.79
4398;BME280;2213;49.720;7.296;2022-08-25T01:18:49;98234.09;;;19.55;81.19
4398;BME280;2213;49.720;7.296;2022-08-25T01:21:23;98238.03;;;19.53;81.15
4398;BME280;2213;49.720;7.296;2022-08-25T01:23:54;98230.78;;;19.48;81.41
4398;BME280;2213;49.720;7.296;2022-08-25T01:26:28;98237.97;;;19.36;82.16
4398;BME280;2213;49.720;7.296;2022-08-25T01:29:01;98237.38;;;19.34;82.67
4398;BME280;2213;49.720;7.296;2022-08-25T01:31:52;98244.78;;;19.32;82.66
4398;BME280;2213;49.720;7.296;2022-08-25T01:34:23;98243.66;;;19.28;83.01
4398;BME280;2213;49.720;7.296;2022-08-25T01:36:55;98246.19;;;19.23;83.11
4398;BME280;2213;49.720;7.296;2022-08-25T01:39:27;98247.97;;;19.18;83.81
4398;BME280;2213;49.720;7.296;2022-08-25T01:42:18;98245.88;;;19.20;83.73
4398;BME280;2213;49.720;7.296;2022-08-25T01:44:47;98243.09;;;19.26;82.96
4398;BME280;2213;49.720;7.296;2022-08-25T01:47:16;98246.19;;;19.23;83.17
4398;BME280;2213;49.720;7.296;2022-08-25T01:49:45;98249.25;;;19.15;83.78
4398;BME280;2213;49.720;7.296;2022-08-25T01:52:27;98247.53;;;19.09;84.50
4398;BME280;2213;49.720;7.296;2022-08-25T01:54:56;98240.38;;;19.09;84.45
4398;BME280;2213;49.720;7.296;2022-08-25T01:57:27;98239.38;;;18.99;84.82
4398;BME280;2213;49.720;7.296;2022-08-25T01:59:57;98237.69;;;18.93;85.43
4398;BME280;2213;49.720;7.296;2022-08-25T02:02:26;98241.69;;;18.95;85.36
4398;BME280;2213;49.720;7.296;2022-08-25T02:04:57;98243.66;;;19.00;84.82
4398;BME280;2213;49.720;7.296;2022-08-25T02:07:28;98244.00;;;18.92;85.27
4398;BME280;2213;49.720;7.296;2022-08-25T02:09:57;98238.03;;;18.85;86.11
4398;BME280;2213;49.720;7.296;2022-08-25T02:12:30;98244.72;;;18.87;85.92
4398;BME280;2213;49.720;7.296;2022-08-25T02:14:59;98242.88;;;18.88;85.88
4398;BME280;2213;49.720;7.296;2022-08-25T02:17:29;98245.97;;;18.85;85.84
4398;BME280;2213;49.720;7.296;2022-08-25T02:19:58;98238.91;;;18.74;86.55
4398;BME280;2213;49.720;7.296;2022-08-25T02:22:29;98246.50;;;18.70;86.60
4398;BME280;2213;49.720;7.296;2022-08-25T02:24:58;98241.44;;;18.69;87.08
4398;BME280;2213;49.720;7.296;2022-08-25T02:27:27;98232.31;;;18.76;86.84
4398;BME280;2213;49.720;7.296;2022-08-25T02:29:56;98232.88;;;18.78;86.45
4398;BME280;2213;49.720;7.296;2022-08-25T02:32:25;98235.19;;;18.75;86.17
4398;BME280;2213;49.720;7.296;2022-08-25T02:34:54;98234.75;;;18.66;86.81
4398;BME280;2213;49.720;7.296;2022-08-25T02:37:23;98229.81;;;18.70;86.79
4398;BME280;2213;49.720;7.296;2022-08-25T02:39:53;98237.28;;;18.73;87.08
4398;BME280;2213;49.720;7.296;2022-08-25T02:42:22;98234.16;;;18.76;87.04
4398;BME280;2213;49.720;7.296;2022-08-25T02:44:51;98231.50;;;18.76;86.79
4398;BME280;2213;49.720;7.296;2022-08-25T02:47:22;98235.22;;;18.63;86.97
4398;BME280;2213;49.720;7.296;2022-08-25T02:49:53;98225.78;;;18.67;87.34
4398;BME280;2213;49.720;7.296;2022-08-25T02:52:22;98227.84;;;18.65;87.36
4398;BME280;2213;49.720;7.296;2022-08-25T02:54:52;98231.84;;;18.68;86.68
4398;BME280;2213;49.720;7.296;2022-08-25T02:57:21;98228.44;;;18.67;86.80
4398;BME280;2213;49.720;7.296;2022-08-25T02:59:50;98229.47;;;18.66;86.72
4398;BME280;2213;49.720;7.296;2022-08-25T03:02:19;98228.66;;;18.66;86.64
4398;BME280;2213;49.720;7.296;2022-08-25T03:04:48;98223.34;;;18.66;86.69
4398;BME280;2213;49.720;7.296;2022-08-25T03:07:21;98224.16;;;18.66;86.84
4398;BME280;2213;49.720;7.296;2022-08-25T03:09:50;98227.97;;;18.58;87.24
4398;BME280;2213;49.720;7.296;2022-08-25T03:12:21;98222.69;;;18.58;87.39
4398;BME280;2213;49.720;7.296;2022-08-25T03:14:49;98224.75;;;18.56;87.34
4398;BME280;2213;49.720;7.296;2022-08-25T03:17:19;98223.38;;;18.54;87.19
4398;BME280;2213;49.720;7.296;2022-08-25T03:19:48;98210.38;;;18.52;87.55
4398;BME280;2213;49.720;7.296;2022-08-25T03:22:17;98208.16;;;18.49;87.36
4398;BME280;2213;49.720;7.296;2022-08-25T03:24:47;98211.50;;;18.45;87.56
4398;BME280;2213;49.720;7.296;2022-08-25T03:27:16;98199.75;;;18.41;87.57
4398;BME280;2213;49.720;7.296;2022-08-25T03:29:45;98198.47;;;18.43;88.12
4398;BME280;2213;49.720;7.296;2022-08-25T03:32:15;98196.31;;;18.40;87.84
4398;BME280;2213;49.720;7.296;2022-08-25T03:34:44;98198.94;;;18.40;88.17
4398;BME280;2213;49.720;7.296;2022-08-25T03:37:14;98195.63;;;18.33;88.69
4398;BME280;2213;49.720;7.296;2022-08-25T03:39:43;98210.34;;;18.29;89.12
4398;BME280;2213;49.720;7.296;2022-08-25T03:42:12;98202.41;;;18.29;89.31
4398;BME280;2213;49.720;7.296;2022-08-25T03:44:41;98207.50;;;18.31;88.92
4398;BME280;2213;49.720;7.296;2022-08-25T03:47:11;98209.78;;;18.27;89.34
4398;BME280;2213;49.720;7.296;2022-08-25T03:49:39;98190.22;;;18.28;88.62
4398;BME280;2213;49.720;7.296;2022-08-25T03:52:08;98195.41;;;18.23;89.15
4398;BME280;2213;49.720;7.296;2022-08-25T03:54:37;98197.59;;;18.26;89.28
4398;BME280;2213;49.720;7.296;2022-08-25T03:57:06;98193.56;;;18.24;88.84
4398;BME280;2213;49.720;7.296;2022-08-25T03:59:35;98204.28;;;18.17;89.38
4398;BME280;2213;49.720;7.296;2022-08-25T04:02:06;98205.91;;;18.18;89.55
4398;BME280;2213;49.720;7.296;2022-08-25T04:04:39;98211.66;;;18.15;89.47
4398;BME280;2213;49.720;7.296;2022-08-25T04:07:11;98218.53;;;18.16;89.86
4398;BME280;2213;49.720;7.296;2022-08-25T04:09:41;98214.75;;;18.12;89.66
4398;BME280;2213;49.720;7.296;2022-08-25T04:12:11;98210.50;;;18.11;90.23
4398;BME280;2213;49.720;7.296;2022-08-25T04:14:39;98207.72;;;18.06;90.04
4398;BME280;2213;49.720;7.296;2022-08-25T04:17:09;98211.66;;;18.03;89.78
4398;BME280;2213;49.720;7.296;2022-08-25T04:19:39;98208.66;;;18.00;90.57
4398;BME280;2213;49.720;7.296;2022-08-25T04:22:09;98207.63;;;18.01;90.61
4398;BME280;2213;49.720;7.296;2022-08-25T04:24:39;98207.84;;;17.99;90.58
4398;BME280;2213;49.720;7.296;2022-08-25T04:27:07;98208.78;;;17.93;91.26
4398;BME280;2213;49.720;7.296;2022-08-25T04:29:36;98207.97;;;17.93;91.38
4398;BME280;2213;49.720;7.296;2022-08-25T04:32:06;98202.53;;;17.88;91.58
4398;BME280;2213;49.720;7.296;2022-08-25T04:34:38;98210.28;;;17.89;91.88
4398;BME280;2213;49.720;7.296;2022-08-25T04:37:07;98212.44;;;17.92;91.91
4398;BME280;2213;49.720;7.296;2022-08-25T04:39:36;98214.53;;;17.90;91.59
4398;BME280;2213;49.720;7.296;2022-08-25T04:42:05;98216.25;;;17.85;92.12
4398;BME280;2213;49.720;7.296;2022-08-25T04:44:34;98208.66;;;17.77;93.62
4398;BME280;2213;49.720;7.296;2022-08-25T04:47:03;98212.78;;;17.73;93.36
4398;BME280;2213;49.720;7.296;2022-08-25T04:49:33;98204.16;;;17.66;93.85
4398;BME280;2213;49.720;7.296;2022-08-25T04:52:05;98200.03;;;17.70;93.40
4398;BME280;2213;49.720;7.296;2022-08-25T04:54:41;98202.44;;;17.59;93.81
4398;BME280;2213;49.720;7.296;2022-08-25T04:57:11;98205.00;;;17.48;94.57
4398;BME280;2213;49.720;7.296;2022-08-25T04:59:40;98204.41;;;17.46;95.53
4398;BME280;2213;49.720;7.296;2022-08-25T05:02:09;98198.78;;;17.42;95.75
4398;BME280;2213;49.720;7.296;2022-08-25T05:04:39;98204.84;;;17.31;97.07
4398;BME280;2213;49.720;7.296;2022-08-25T05:07:09;98195.41;;;17.24;97.67
4398;BME280;2213;49.720;7.296;2022-08-25T05:09:38;98194.16;;;17.26;97.83
4398;BME280;2213;49.720;7.296;2022-08-25T05:12:08;98199.22;;;17.28;98.00
4398;BME280;2213;49.720;7.296;2022-08-25T05:14:38;98194.75;;;17.28;98.00
4398;BME280;2213;49.720;7.296;2022-08-25T05:17:07;98194.16;;;17.26;98.63
4398;BME280;2213;49.720;7.296;2022-08-25T05:19:35;98205.56;;;17.38;98.23
4398;BME280;2213;49.720;7.296;2022-08-25T05:22:05;98200.75;;;17.35;98.14
4398;BME280;2213;49.720;7.296;2022-08-25T05:24:35;98202.31;;;17.36;98.32
4398;BME280;2213;49.720;7.296;2022-08-25T05:27:04;98195.44;;;17.35;98.53
4398;BME280;2213;49.720;7.296;2022-08-25T05:29:33;98188.91;;;17.38;98.83
4398;BME280;2213;49.720;7.296;2022-08-25T05:32:02;98192.91;;;17.40;98.99
4398;BME280;2213;49.720;7.296;2022-08-25T05:34:32;98196.59;;;17.39;99.19
4398;BME280;2213;49.720;7.296;2022-08-25T05:37:00;98191.28;;;17.39;99.24
4398;BME280;2213;49.720;7.296;2022-08-25T05:39:38;98191.91;;;17.41;99.04
4398;BME280;2213;49.720;7.296;2022-08-25T05:42:07;98183.25;;;17.46;99.11
4398;BME280;2213;49.720;7.296;2022-08-25T05:44:36;98182.59;;;17.50;99.02
4398;BME280;2213;49.720;7.296;2022-08-25T05:47:05;98186.41;;;17.54;98.85
4398;BME280;2213;49.720;7.296;2022-08-25T05:49:34;98184.69;;;17.60;98.63
4398;BME280;2213;49.720;7.296;2022-08-25T05:52:03;98185.28;;;17.62;98.75
4398;BME280;2213;49.720;7.296;2022-08-25T05:54:32;98179.31;;;17.67;98.12
4398;BME280;2213;49.720;7.296;2022-08-25T05:57:02;98177.59;;;17.72;98.03
4398;BME280;2213;49.720;7.296;2022-08-25T05:59:31;98173.00;;;17.79;98.11
4398;BME280;2213;49.720;7.296;2022-08-25T06:02:01;98174.63;;;17.80;97.91
4398;BME280;2213;49.720;7.296;2022-08-25T06:04:47;98168.50;;;17.80;98.09
4398;BME280;2213;49.720;7.296;2022-08-25T06:07:16;98176.44;;;17.80;98.15
4398;BME280;2213;49.720;7.296;2022-08-25T06:09:45;98180.69;;;17.81;98.72
4398;BME280;2213;49.720;7.296;2022-08-25T06:12:18;98173.44;;;17.88;98.46
4398;BME280;2213;49.720;7.296;2022-08-25T06:14:47;98170.91;;;17.93;97.95
4398;BME280;2213;49.720;7.296;2022-08-25T06:17:16;98159.88;;;17.96;97.55
4398;BME280;2213;49.720;7.296;2022-08-25T06:19:45;98167.47;;;18.04;97.69
4398;BME280;2213;49.720;7.296;2022-08-25T06:22:14;98167.00;;;18.07;97.62
4398;BME280;2213;49.720;7.296;2022-08-25T06:24:43;98162.63;;;18.13;97.44
4398;BME280;2213;49.720;7.296;2022-08-25T06:27:11;98160.09;;;18.18;97.45
4398;BME280;2213;49.720;7.296;2022-08-25T06:29:42;98152.03;;;18.24;96.95
4398;BME280;2213;49.720;7.296;2022-08-25T06:32:11;98145.22;;;18.28;96.85
4398;BME280;2213;49.720;7.296;2022-08-25T06:34:40;98144.84;;;18.36;96.52
4398;BME280;2213;49.720;7.296;2022-08-25T06:37:08;98154.53;;;18.42;96.26
4398;BME280;2213;49.720;7.296;2022-08-25T06:39:38;98142.66;;;18.45;95.97
4398;BME280;2213;49.720;7.296;2022-08-25T06:42:08;98152.75;;;18.48;96.06
4398;BME280;2213;49.720;7.296;2022-08-25T06:44:37;98143.09;;;18.53;95.74
4398;BME280;2213;49.720;7.296;2022-08-25T06:47:08;98141.59;;;18.57;95.21
4398;BME280;2213;49.720;7.296;2022-08-25T06:49:37;98148.38;;;18.65;94.44
4398;BME280;2213;49.720;7.296;2022-08-25T06:52:05;98155.63;;;18.70;94.43
4398;BME280;2213;49.720;7.296;2022-08-25T06:54:34;98160.78;;;18.76;93.82
4398;BME280;2213;49.720;7.296;2022-08-25T06:57:04;98152.69;;;18.83;93.78
4398;BME280;2213;49.720;7.296;2022-08-25T06:59:34;98150.69;;;18.90;93.16
4398;BME280;2213;49.720;7.296;2022-08-25T07:02:09;98146.59;;;18.99;92.79
4398;BME280;2213;49.720;7.296;2022-08-25T07:04:38;98145.66;;;19.05;93.08
4398;BME280;2213;49.720;7.296;2022-08-25T07:07:08;98153.00;;;19.15;92.97
4398;BME280;2213;49.720;7.296;2022-08-25T07:09:36;98155.72;;;19.20;92.94
4398;BME280;2213;49.720;7.296;2022-08-25T07:12:06;98150.28;;;19.26;93.70
4398;BME280;2213;49.720;7.296;2022-08-25T07:14:35;98147.22;;;19.34;93.85
4398;BME280;2213;49.720;7.296;2022-08-25T07:17:05;98147.09;;;19.41;93.83
4398;BME280;2213;49.720;7.296;2022-08-25T07:19:40;98147.50;;;19.49;93.23
4398;BME280;2213;49.720;7.296;2022-08-25T07:22:08;98142.84;;;19.56;92.71
4398;BME280;2213;49.720;7.296;2022-08-25T07:24:37;98143.47;;;19.64;92.29
4398;BME280;2213;49.720;7.296;2022-08-25T07:27:07;98142.28;;;19.71;92.28
4398;BME280;2213;49.720;7.296;2022-08-25T07:29:38;98137.34;;;19.80;92.44
4398;BME280;2213;49.720;7.296;2022-08-25T07:32:08;98141.66;;;19.86;92.11
4398;BME280;2213;49.720;7.296;2022-08-25T07:34:38;98146.34;;;19.95;92.71
4398;BME280;2213;49.720;7.296;2022-08-25T07:37:25;98149.38;;;20.04;92.73
4398;BME280;2213;49.720;7.296;2022-08-25T07:40:17;98143.38;;;20.14;92.57
4398;BME280;2213;49.720;7.296;2022-08-25T07:42:48;98142.72;;;20.23;92.61
4398;BME280;2213;49.720;7.296;2022-08-25T07:45:20;98143.13;;;20.32;93.16
4398;BME280;2213;49.720;7.296;2022-08-25T07:47:59;98146.16;;;20.40;93.55
4398;BME280;2213;49.720;7.296;2022-08-25T07:50:31;98135.09;;;20.48;93.61
4398;BME280;2213;49.720;7.296;2022-08-25T07:52:59;98137.84;;;20.58;92.99
4398;BME280;2213;49.720;7.296;2022-08-25T07:55:30;98140.88;;;20.67;93.09
4398;BME280;2213;49.720;7.296;2022-08-25T07:58:00;98135.91;;;20.76;93.32
4398;BME280;2213;49.720;7.296;2022-08-25T08:00:30;98126.44;;;20.85;93.13
4398;BME280;2213;49.720;7.296;2022-08-25T08:03:04;98131.34;;;20.93;93.57
4398;BME280;2213;49.720;7.296;2022-08-25T08:05:41;98133.28;;;21.02;93.16
4398;BME280;2213;49.720;7.296;2022-08-25T08:08:09;98136.31;;;21.11;93.05
4398;BME280;2213;49.720;7.296;2022-08-25T08:10:38;98129.78;;;21.24;94.04
4398;BME280;2213;49.720;7.296;2022-08-25T08:13:27;98141.31;;;21.34;93.45
4398;BME280;2213;49.720;7.296;2022-08-25T08:15:57;98132.84;;;21.42;93.29
4398;BME280;2213;49.720;7.296;2022-08-25T08:18:26;98134.53;;;21.53;93.07
4398;BME280;2213;49.720;7.296;2022-08-25T08:20:56;98134.88;;;21.62;92.33
4398;BME280;2213;49.720;7.296;2022-08-25T08:23:26;98135.19;;;21.71;92.56
4398;BME280;2213;49.720;7.296;2022-08-25T08:25:56;98131.25;;;21.78;92.54
4398;BME280;2213;49.720;7.296;2022-08-25T08:28:25;98131.56;;;21.87;93.39
4398;BME280;2213;49.720;7.296;2022-08-25T08:30:54;98130.88;;;21.96;93.65
4398;BME280;2213;49.720;7.296;2022-08-25T08:33:24;98125.88;;;22.10;94.70
4398;BME280;2213;49.720;7.296;2022-08-25T08:36:01;98124.88;;;22.26;95.12
4398;BME280;2213;49.720;7.296;2022-08-25T08:38:32;98125.47;;;22.38;94.69
4398;BME280;2213;49.720;7.296;2022-08-25T08:41:13;98117.50;;;22.53;95.28
4398;BME280;2213;49.720;7.296;2022-08-25T08:44:29;98112.00;;;22.70;94.42
4398;BME280;2213;49.720;7.296;2022-08-25T08:47:06;98110.16;;;22.86;94.68
4398;BME280;2213;49.720;7.296;2022-08-25T08:49:47;98102.19;;;22.96;93.01
4398;BME280;2213;49.720;7.296;2022-08-25T08:52:28;98096.84;;;23.06;92.17
4398;BME280;2213;49.720;7.296;2022-08-25T08:55:08;98099.00;;;23.14;90.70
4398;BME280;2213;49.720;7.296;2022-08-25T08:57:46;98093.09;;;23.22;90.03
4398;BME280;2213;49.720;7.296;2022-08-25T09:00:16;98086.72;;;23.28;89.77
4398;BME280;2213;49.720;7.296;2022-08-25T09:02:50;98095.78;;;23.37;89.58
4398;BME280;2213;49.720;7.296;2022-08-25T09:05:25;98094.19;;;23.46;89.06
4398;BME280;2213;49.720;7.296;2022-08-25T09:08:02;98096.88;;;23.57;87.91
4398;BME280;2213;49.720;7.296;2022-08-25T09:10:47;98098.44;;;23.68;86.87
4398;BME280;2213;49.720;7.296;2022-08-25T09:13:35;98092.03;;;23.79;85.30
4398;BME280;2213;49.720;7.296;2022-08-25T09:16:15;98094.94;;;23.87;83.65
4398;BME280;2213;49.720;7.296;2022-08-25T09:19:21;98097.03;;;23.95;82.29
4398;BME280;2213;49.720;7.296;2022-08-25T09:22:08;98096.50;;;24.03;81.90
4398;BME280;2213;49.720;7.296;2022-08-25T09:25:12;98095.69;;;24.13;78.84
4398;BME280;2213;49.720;7.296;2022-08-25T09:28:08;98092.16;;;24.23;77.91
4398;BME280;2213;49.720;7.296;2022-08-25T09:30:48;98088.13;;;24.30;77.67
4398;BME280;2213;49.720;7.296;2022-08-25T09:33:22;98088.88;;;24.41;77.05
4398;BME280;2213;49.720;7.296;2022-08-25T09:35:54;98077.88;;;24.47;75.60
4398;BME280;2213;49.720;7.296;2022-08-25T09:38:26;98070.91;;;24.51;75.32
4398;BME280;2213;49.720;7.296;2022-08-25T09:41:01;98071.72;;;24.57;74.65
4398;BME280;2213;49.720;7.296;2022-08-25T09:43:34;98074.63;;;24.61;72.66
4398;BME280;2213;49.720;7.296;2022-08-25T09:46:11;98071.66;;;24.67;73.55
4398;BME280;2213;49.720;7.296;2022-08-25T09:48:47;98068.66;;;24.69;72.87
4398;BME280;2213;49.720;7.296;2022-08-25T09:51:26;98071.34;;;24.74;72.99
4398;BME280;2213;49.720;7.296;2022-08-25T09:54:19;98064.63;;;24.76;73.25
4398;BME280;2213;49.720;7.296;2022-08-25T09:57:03;98057.91;;;24.79;72.45
4398;BME280;2213;49.720;7.296;2022-08-25T09:59:36;98049.09;;;24.83;71.08
4398;BME280;2213;49.720;7.296;2022-08-25T10:02:22;98048.75;;;24.90;70.90
4398;BME280;2213;49.720;7.296;2022-08-25T10:04:52;98052.47;;;24.94;70.52
4398;BME280;2213;49.720;7.296;2022-08-25T10:07:28;98047.63;;;24.96;69.12
4398;BME280;2213;49.720;7.296;2022-08-25T10:10:00;98033.44;;;25.00;68.77
4398;BME280;2213;49.720;7.296;2022-08-25T10:12:39;98040.91;;;25.03;68.77
4398;BME280;2213;49.720;7.296;2022-08-25T10:15:17;98041.91;;;25.13;68.61
4398;BME280;2213;49.720;7.296;2022-08-25T10:18:19;98031.91;;;25.23;66.06
4398;BME280;2213;49.720;7.296;2022-08-25T10:21:10;98032.38;;;25.30;63.37
4398;BME280;2213;49.720;7.296;2022-08-25T10:23:44;98023.22;;;25.36;62.50
4398;BME280;2213;49.720;7.296;2022-08-25T10:26:27;98027.66;;;25.46;61.24
4398;BME280;2213;49.720;7.296;2022-08-25T10:29:29;98023.06;;;25.51;59.54
4398;BME280;2213;49.720;7.296;2022-08-25T10:32:06;98030.25;;;25.56;59.16
4398;BME280;2213;49.720;7.296;2022-08-25T10:34:47;98025.63;;;25.62;58.57
4398;BME280;2213;49.720;7.296;2022-08-25T10:37:30;98017.84;;;25.65;58.74
4398;BME280;2213;49.720;7.296;2022-08-25T10:40:15;98015.09;;;25.70;59.04
4398;BME280;2213;49.720;7.296;2022-08-25T10:43:02;98008.09;;;25.74;59.58
4398;BME280;2213;49.720;7.296;2022-08-25T10:45:41;98007.19;;;25.84;58.24
4398;BME280;2213;49.720;7.296;2022-08-25T10:48:49;97995.03;;;25.91;57.80
4398;BME280;2213;49.720;7.296;2022-08-25T10:51:37;97983.47;;;25.96;58.27
4398;BME280;2213;49.720;7.296;2022-08-25T10:54:25;97997.31;;;26.03;58.72
4398;BME280;2213;49.720;7.296;2022-08-25T10:57:11;97989.75;;;26.05;58.80
4398;BME280;2213;49.720;7.296;2022-08-25T11:00:21;97981.66;;;26.10;58.42
4398;BME280;2213;49.720;7.296;2022-08-25T11:03:38;97979.47;;;26.12;58.43
4398;BME280;2213;49.720;7.296;2022-08-25T11:06:19;97975.72;;;26.13;57.98
4398;BME280;2213;49.720;7.296;2022-08-25T11:08:55;97969.13;;;26.24;56.08
4398;BME280;2213;49.720;7.296;2022-08-25T11:11:31;97973.06;;;26.32;54.96
4398;BME280;2213;49.720;7.296;2022-08-25T11:14:08;97974.00;;;26.41;55.21
4398;BME280;2213;49.720;7.296;2022-08-25T11:16:42;97967.75;;;26.45;55.30
4398;BME280;2213;49.720;7.296;2022-08-25T11:19:22;97967.69;;;26.50;54.30
4398;BME280;2213;49.720;7.296;2022-08-25T11:22:02;97974.06;;;26.55;53.43
4398;BME280;2213;49.720;7.296;2022-08-25T11:24:59;97973.78;;;26.56;54.06
4398;BME280;2213;49.720;7.296;2022-08-25T11:27:36;97976.16;;;26.58;54.00
4398;BME280;2213;49.720;7.296;2022-08-25T11:30:12;97972.91;;;26.61;54.67
4398;BME280;2213;49.720;7.296;2022-08-25T11:32:48;97966.47;;;26.62;54.73
4398;BME280;2213;49.720;7.296;2022-08-25T11:35:28;97955.72;;;26.62;54.81
4398;BME280;2213;49.720;7.296;2022-08-25T11:38:21;97951.66;;;26.64;55.00
4398;BME280;2213;49.720;7.296;2022-08-25T11:41:09;97931.78;;;26.65;54.51
4398;BME280;2213;49.720;7.296;2022-08-25T11:44:04;97940.25;;;26.72;54.98
4398;BME280;2213;49.720;7.296;2022-08-25T11:46:55;97949.22;;;26.81;55.41
4398;BME280;2213;49.720;7.296;2022-08-25T11:49:50;97943.00;;;26.86;55.39
4398;BME280;2213;49.720;7.296;2022-08-25T11:52:53;97939.13;;;26.92;54.93
4398;BME280;2213;49.720;7.296;2022-08-25T11:55:44;97938.25;;;26.96;54.55
4398;BME280;2213;49.720;7.296;2022-08-25T11:58:31;97935.78;;;27.00;54.04
4398;BME280;2213;49.720;7.296;2022-08-25T12:01:03;97941.56;;;27.07;54.89
4398;BME280;2213;49.720;7.296;2022-08-25T12:04:09;97945.53;;;27.10;54.16
4398;BME280;2213;49.720;7.296;2022-08-25T12:07:19;97929.44;;;27.10;54.07
4398;BME280;2213;49.720;7.296;2022-08-25T12:10:17;97930.91;;;27.16;54.01
4398;BME280;2213;49.720;7.296;2022-08-25T12:13:05;97935.19;;;27.17;53.13
4398;BME280;2213;49.720;7.296;2022-08-25T12:15:59;97929.53;;;27.18;53.29
4398;BME280;2213;49.720;7.296;2022-08-25T12:18:44;97920.09;;;27.21;53.01
4398;BME280;2213;49.720;7.296;2022-08-25T12:21:31;97928.63;;;27.23;52.95
4398;BME280;2213;49.720;7.296;2022-08-25T12:24:13;97927.94;;;27.31;52.47
4398;BME280;2213;49.720;7.296;2022-08-25T12:26:56;97922.97;;;27.38;52.03
4398;BME280;2213;49.720;7.296;2022-08-25T12:29:32;97919.97;;;27.39;51.90
4398;BME280;2213;49.720;7.296;2022-08-25T12:32:43;97911.56;;;27.46;50.90
4398;BME280;2213;49.720;7.296;2022-08-25T12:35:29;97916.03;;;27.50;50.98
4398;BME280;2213;49.720;7.296;2022-08-25T12:38:08;97903.59;;;27.55;50.44
4398;BME280;2213;49.720;7.296;2022-08-25T12:40:58;97902.09;;;27.62;50.60
4398;BME280;2213;49.720;7.296;2022-08-25T12:43:33;97894.53;;;27.64;50.61
4398;BME280;2213;49.720;7.296;2022-08-25T12:46:34;97896.00;;;27.70;50.64
4398;BME280;2213;49.720;7.296;2022-08-25T12:49:29;97897.78;;;27.75;50.83
4398;BME280;2213;49.720;7.296;2022-08-25T12:52:05;97893.09;;;27.80;50.28
4398;BME280;2213;49.720;7.296;2022-08-25T12:54:46;97896.16;;;27.87;49.87
4398;BME280;2213;49.720;7.296;2022-08-25T12:57:35;97905.13;;;27.96;49.18
4398;BME280;2213;49.720;7.296;2022-08-25T13:00:16;97893.75;;;27.99;49.67
4398;BME280;2213;49.720;7.296;2022-08-25T13:03:25;97883.19;;;28.03;49.79
4398;BME280;2213;49.720;7.296;2022-08-25T13:06:24;97885.97;;;27.98;49.44
4398;BME280;2213;49.720;7.296;2022-08-25T13:12:16;97873.81;;;28.14;49.44
4398;BME280;2213;49.720;7.296;2022-08-25T13:14:53;97871.97;;;28.23;48.58
4398;BME280;2213;49.720;7.296;2022-08-25T13:17:29;97873.31;;;28.34;48.17
4398;BME280;2213;49.720;7.296;2022-08-25T13:20:18;97872.09;;;28.40;47.67
4398;BME280;2213;49.720;7.296;2022-08-25T13:22:56;97869.59;;;28.44;47.84
4398;BME280;2213;49.720;7.296;2022-08-25T13:25:30;97871.84;;;28.50;47.42
4398;BME280;2213;49.720;7.296;2022-08-25T13:28:04;97872.19;;;28.58;47.50
4398;BME280;2213;49.720;7.296;2022-08-25T13:30:37;97863.41;;;28.66;46.53
4398;BME280;2213;49.720;7.296;2022-08-25T13:33:19;97868.38;;;28.72;46.30
4398;BME280;2213;49.720;7.296;2022-08-25T13:35:51;97868.72;;;28.79;45.87
4398;BME280;2213;49.720;7.296;2022-08-25T13:38:43;97862.00;;;28.99;46.46
4398;BME280;2213;49.720;7.296;2022-08-25T13:41:25;97850.59;;;29.41;44.38
4398;BME280;2213;49.720;7.296;2022-08-25T13:43:56;97851.50;;;29.85;44.29
4398;BME280;2213;49.720;7.296;2022-08-25T13:46:28;97847.81;;;30.32;42.43
4398;BME280;2213;49.720;7.296;2022-08-25T13:49:05;97839.81;;;30.70;42.68
4398;BME280;2213;49.720;7.296;2022-08-25T13:51:36;97836.56;;;31.03;41.42
4398;BME280;2213;49.720;7.296;2022-08-25T13:54:23;97847.69;;;31.30;40.30
4398;BME280;2213;49.720;7.296;2022-08-25T13:56:53;97843.41;;;31.29;40.97
4398;BME280;2213;49.720;7.296;2022-08-25T13:59:36;97843.84;;;31.31;40.54
4398;BME280;2213;49.720;7.296;2022-08-25T14:02:09;97843.84;;;31.31;40.98
4398;BME280;2213;49.720;7.296;2022-08-25T14:04:48;97833.69;;;31.28;40.60
4398;BME280;2213;49.720;7.296;2022-08-25T14:07:28;97839.75;;;31.25;40.38
4398;BME280;2213;49.720;7.296;2022-08-25T14:10:06;97834.63;;;31.32;40.65